Terminal Aerodrome Forecast
Issued by NWS

Home | Current Version | Previous Version | Text Only | Print | Product List | Glossary Off
Versions: 1 2 3 4 5 6 7 8 9 10 11 12 13 14 15

000
FTUS43 KBIS 242300
TAFJMS
TAF
KJMS 242339Z 2500/2524 36006KT P6SM OVC080
     FM250300 07010KT P6SM SCT030 OVC060
     FM251200 02016KT P6SM BKN040
     FM251900 35018KT P6SM SCT150=

USA.gov is the U.S. government's official web portal to all federal, state and local government web resources and services.